createdAt,value
2023-11-23T00:01:40.624Z,9.03
2023-11-23T00:04:07.428Z,7.83
2023-11-23T00:06:34.163Z,8.77
2023-11-23T00:09:00.901Z,11.20
2023-11-23T00:11:27.586Z,9.93
2023-11-23T00:13:54.290Z,11.87
2023-11-23T00:16:21.044Z,6.83
2023-11-23T00:18:47.851Z,9.50
2023-11-23T00:21:14.619Z,8.43
2023-11-23T00:23:42.293Z,9.53
2023-11-23T00:26:09.540Z,11.30
2023-11-23T00:28:37.750Z,7.13
2023-11-23T00:31:05.080Z,10.67
2023-11-23T00:33:31.921Z,6.23
2023-11-23T00:35:58.710Z,8.07
2023-11-23T00:38:25.460Z,11.70
2023-11-23T00:40:52.243Z,8.73
2023-11-23T00:43:18.952Z,12.17
2023-11-23T00:45:46.024Z,9.93
2023-11-23T00:48:13.534Z,9.30
2023-11-23T00:50:40.946Z,8.90
2023-11-23T00:53:07.669Z,10.80
2023-11-23T00:55:34.312Z,14.37
2023-11-23T00:58:02.875Z,11.73
2023-11-23T01:00:31.042Z,9.73
2023-11-23T01:02:57.839Z,11.57
2023-11-23T01:05:24.584Z,15.47
2023-11-23T01:07:51.263Z,15.87
2023-11-23T01:10:17.921Z,13.97
2023-11-23T01:12:44.591Z,16.37
2023-11-23T01:15:13.216Z,14.43
2023-11-23T01:17:40.518Z,15.70
2023-11-23T01:20:08.802Z,15.07
2023-11-23T01:22:37.309Z,14.37
2023-11-23T01:25:09.369Z,17.13
2023-11-23T01:27:37.198Z,15.40
2023-11-23T01:30:04.970Z,17.93
2023-11-23T01:32:33.645Z,18.73
2023-11-23T01:35:00.416Z,18.13
2023-11-23T01:37:27.278Z,14.70
2023-11-23T01:39:54.968Z,13.83
2023-11-23T01:42:21.706Z,16.80
2023-11-23T01:44:48.561Z,16.43
2023-11-23T01:47:16.229Z,19.00
2023-11-23T01:49:46.409Z,15.50
2023-11-23T01:52:13.451Z,18.00
2023-11-23T01:54:40.417Z,16.50
2023-11-23T01:57:09.267Z,15.70
2023-11-23T01:59:37.091Z,16.73
2023-11-23T02:02:06.671Z,18.07
2023-11-23T02:04:33.576Z,20.07
2023-11-23T02:07:01.050Z,17.53
2023-11-23T02:09:29.812Z,18.10
2023-11-23T02:11:57.399Z,18.13
2023-11-23T02:14:25.071Z,22.73
2023-11-23T02:16:51.809Z,18.67
2023-11-23T02:19:18.549Z,20.00
2023-11-23T02:21:45.394Z,21.93
2023-11-23T02:24:12.725Z,19.20
2023-11-23T02:26:40.304Z,21.60
2023-11-23T02:29:07.050Z,21.23
2023-11-23T02:31:34.151Z,17.07
2023-11-23T02:34:01.567Z,18.33
2023-11-23T02:36:28.250Z,20.77
2023-11-23T02:38:54.984Z,23.90
2023-11-23T02:41:21.692Z,21.40
2023-11-23T02:43:49.899Z,21.37
2023-11-23T02:46:16.695Z,23.67
2023-11-23T02:48:43.467Z,19.03
2023-11-23T02:51:10.325Z,20.20
2023-11-23T02:53:44.723Z,20.83
2023-11-23T02:56:12.107Z,22.60
2023-11-23T02:58:42.936Z,18.07
2023-11-23T03:01:10.352Z,21.83
2023-11-23T03:03:37.198Z,19.90
2023-11-23T03:06:04.086Z,26.47
2023-11-23T03:08:30.795Z,24.80
2023-11-23T03:10:57.518Z,26.27
2023-11-23T03:13:25.418Z,25.20
2023-11-23T03:15:52.237Z,26.60
2023-11-23T03:18:19.244Z,25.03
2023-11-23T03:20:47.148Z,20.10
2023-11-23T03:23:14.240Z,19.07
2023-11-23T03:25:41.342Z,21.53
2023-11-23T03:28:08.485Z,22.77
2023-11-23T03:30:36.891Z,23.50
2023-11-23T03:33:04.068Z,24.47
2023-11-23T03:35:30.811Z,23.87
2023-11-23T03:37:57.559Z,28.20
2023-11-23T03:40:24.217Z,31.07
2023-11-23T03:42:50.895Z,26.83
2023-11-23T03:45:17.584Z,26.53
2023-11-23T03:47:44.459Z,19.87
2023-11-23T03:50:11.419Z,27.80
2023-11-23T03:52:39.536Z,27.23
2023-11-23T03:55:06.751Z,29.13
2023-11-23T03:57:33.404Z,25.70
2023-11-23T04:00:00.416Z,25.90
2023-11-23T04:02:27.573Z,29.07
2023-11-23T04:04:54.753Z,28.23
2023-11-23T04:07:21.406Z,24.80
2023-11-23T04:09:48.167Z,28.87
2023-11-23T04:12:15.474Z,26.80
2023-11-23T04:14:42.259Z,30.50
2023-11-23T04:17:08.915Z,31.23
2023-11-23T04:19:35.568Z,33.80
2023-11-23T04:22:02.972Z,33.20
2023-11-23T04:24:29.641Z,37.30
2023-11-23T04:26:56.294Z,43.90
2023-11-23T04:29:22.954Z,33.33
2023-11-23T04:31:49.591Z,42.37
2023-11-23T04:34:16.366Z,44.47
2023-11-23T04:36:43.116Z,48.53
2023-11-23T04:39:09.975Z,51.20
2023-11-23T04:41:37.847Z,51.43
2023-11-23T04:44:04.698Z,50.33
2023-11-23T04:46:31.555Z,53.93
2023-11-23T04:48:58.311Z,45.40
2023-11-23T04:51:25.135Z,53.13
2023-11-23T04:53:51.844Z,54.40
2023-11-23T04:56:19.406Z,51.07
2023-11-23T04:58:46.322Z,47.43
2023-11-23T05:01:13.037Z,46.27
2023-11-23T05:03:39.842Z,50.00
2023-11-23T05:06:08.274Z,56.30
2023-11-23T05:08:35.948Z,56.13
2023-11-23T05:11:02.758Z,53.07
2023-11-23T05:13:29.480Z,65.13
2023-11-23T05:15:56.450Z,48.57
2023-11-23T05:18:23.482Z,46.67
2023-11-23T05:20:50.336Z,56.50
2023-11-23T05:23:17.100Z,58.23
2023-11-23T05:25:43.830Z,48.90
2023-11-23T05:28:10.523Z,51.80
2023-11-23T05:30:37.290Z,57.30
2023-11-23T05:33:05.606Z,57.70
2023-11-23T05:35:32.379Z,55.30
2023-11-23T05:37:59.211Z,59.60
2023-11-23T05:40:25.982Z,53.20
2023-11-23T05:42:58.189Z,55.57
2023-11-23T05:45:31.843Z,55.90
2023-11-23T05:47:58.670Z,62.10
2023-11-23T05:50:25.385Z,59.43
2023-11-23T05:52:52.089Z,55.03
2023-11-23T05:55:18.745Z,68.53
2023-11-23T05:57:45.392Z,66.63
2023-11-23T06:00:13.254Z,67.43
2023-11-23T06:02:42.228Z,56.43
2023-11-23T06:05:09.911Z,70.73
2023-11-23T06:07:36.695Z,65.67
2023-11-23T06:10:06.002Z,70.83
2023-11-23T06:12:32.862Z,71.17
2023-11-23T06:14:59.901Z,72.13
2023-11-23T06:17:26.760Z,61.73
2023-11-23T06:19:53.584Z,73.20
2023-11-23T06:22:20.425Z,67.40
2023-11-23T06:24:47.145Z,59.20
2023-11-23T06:27:14.127Z,64.43
2023-11-23T06:29:40.796Z,63.13
2023-11-23T06:32:07.850Z,63.73
2023-11-23T06:34:37.722Z,68.13
2023-11-23T06:37:05.809Z,71.00
2023-11-23T06:39:36.968Z,68.37
2023-11-23T06:42:03.938Z,74.40
2023-11-23T06:44:30.664Z,86.43
2023-11-23T06:46:57.304Z,67.03
2023-11-23T06:49:23.961Z,76.47
2023-11-23T06:51:50.606Z,74.30
2023-11-23T06:54:17.283Z,82.10
2023-11-23T06:56:43.954Z,69.70
2023-11-23T06:59:10.659Z,73.07
2023-11-23T07:01:37.459Z,76.87
2023-11-23T07:04:05.196Z,72.67
2023-11-23T07:06:32.027Z,73.77
2023-11-23T07:09:00.094Z,70.47
2023-11-23T07:11:26.782Z,75.63
2023-11-23T07:13:53.429Z,73.43
2023-11-23T07:16:21.169Z,79.77
2023-11-23T07:18:47.980Z,67.97
2023-11-23T07:21:15.523Z,71.17
2023-11-23T07:23:42.590Z,74.57
2023-11-23T07:26:10.198Z,72.57
2023-11-23T07:28:36.877Z,81.90
2023-11-23T07:31:03.707Z,84.37
2023-11-23T07:33:35.166Z,88.17
2023-11-23T07:36:05.904Z,76.23
2023-11-23T07:38:35.638Z,68.33
2023-11-23T07:41:02.482Z,72.10
2023-11-23T07:43:31.684Z,83.57
2023-11-23T07:45:59.064Z,74.03
2023-11-23T07:48:25.836Z,71.50
2023-11-23T07:50:53.188Z,65.83
2023-11-23T07:53:22.947Z,68.70
2023-11-23T07:55:50.489Z,66.60
2023-11-23T07:58:17.355Z,64.37
2023-11-23T08:00:44.300Z,63.27
2023-11-23T08:03:11.405Z,61.50
2023-11-23T08:05:38.396Z,62.00
2023-11-23T08:08:05.387Z,62.57
2023-11-23T08:10:32.097Z,69.30
2023-11-23T08:12:59.573Z,58.83
2023-11-23T08:15:26.686Z,56.60
2023-11-23T08:17:58.949Z,56.87
2023-11-23T08:20:33.284Z,70.07
2023-11-23T08:23:00.393Z,66.03
2023-11-23T08:25:27.961Z,63.90
2023-11-23T08:27:54.623Z,63.43
2023-11-23T08:30:23.235Z,63.23
2023-11-23T08:32:50.237Z,57.80
2023-11-23T08:35:17.493Z,68.67
2023-11-23T08:37:44.245Z,63.50
2023-11-23T08:40:12.720Z,60.93
2023-11-23T08:42:40.222Z,60.73
2023-11-23T08:45:07.496Z,61.93
2023-11-23T08:47:34.424Z,59.17
2023-11-23T08:50:01.856Z,62.90
2023-11-23T08:52:29.039Z,51.57
2023-11-23T08:54:55.920Z,62.07
2023-11-23T08:57:22.691Z,59.60
2023-11-23T08:59:49.415Z,54.70
2023-11-23T09:02:20.480Z,57.10
2023-11-23T09:04:49.010Z,54.87
2023-11-23T09:07:16.249Z,57.23
2023-11-23T09:09:43.204Z,55.83
2023-11-23T09:12:09.950Z,58.93
2023-11-23T09:14:46.598Z,59.10
2023-11-23T09:17:16.907Z,62.50
2023-11-23T09:19:43.716Z,77.10
2023-11-23T09:22:11.320Z,59.33
2023-11-23T09:24:39.035Z,57.17
2023-11-23T09:27:07.426Z,61.50
2023-11-23T09:29:34.181Z,180.57
2023-11-23T09:32:00.982Z,53.00
2023-11-23T09:34:27.673Z,53.57
2023-11-23T09:36:54.329Z,56.23
2023-11-23T09:39:22.772Z,64.27
2023-11-23T09:41:51.077Z,51.73
2023-11-23T09:44:17.928Z,59.83
2023-11-23T09:46:46.485Z,59.40
2023-11-23T09:49:13.994Z,96.70
2023-11-23T09:51:42.794Z,53.57
2023-11-23T09:54:10.738Z,53.60
2023-11-23T09:56:37.464Z,55.87
2023-11-23T09:59:05.105Z,59.07
2023-11-23T10:01:34.422Z,50.60
2023-11-23T10:04:01.475Z,50.87
2023-11-23T10:06:28.507Z,54.60
2023-11-23T10:08:55.263Z,46.60
2023-11-23T10:11:22.411Z,51.10
2023-11-23T10:13:49.502Z,50.97
2023-11-23T10:16:17.008Z,51.17
2023-11-23T10:18:44.016Z,46.20
2023-11-23T10:21:12.798Z,49.53
2023-11-23T10:23:44.619Z,52.90
2023-11-23T10:26:11.702Z,48.40
2023-11-23T10:28:39.459Z,58.30
2023-11-23T10:31:06.836Z,41.07
2023-11-23T10:33:36.537Z,43.77
2023-11-23T10:36:05.876Z,45.30
2023-11-23T10:38:44.360Z,42.73
2023-11-23T10:41:12.714Z,44.77
2023-11-23T10:43:39.855Z,44.43
2023-11-23T10:46:10.561Z,43.57
2023-11-23T10:48:38.543Z,45.73
2023-11-23T10:51:07.124Z,40.10
2023-11-23T10:53:34.874Z,35.03
2023-11-23T10:56:25.838Z,39.00
2023-11-23T10:58:55.841Z,38.07
2023-11-23T11:01:26.851Z,36.70
2023-11-23T11:03:54.099Z,37.23
2023-11-23T11:06:24.017Z,35.50
2023-11-23T11:08:51.532Z,33.47
2023-11-23T11:11:22.088Z,33.23
2023-11-23T11:13:49.146Z,40.40
2023-11-23T11:16:19.121Z,30.40
2023-11-23T11:18:53.459Z,40.23
2023-11-23T11:21:27.119Z,38.40
2023-11-23T11:23:54.602Z,35.27
2023-11-23T11:26:27.023Z,32.30
2023-11-23T11:29:04.107Z,34.07
2023-11-23T11:31:36.748Z,32.70
2023-11-23T11:34:13.660Z,33.63
2023-11-23T11:36:40.524Z,31.13
2023-11-23T11:39:07.780Z,26.43
2023-11-23T11:41:38.696Z,30.83
2023-11-23T11:44:06.467Z,28.07
2023-11-23T11:46:36.491Z,30.80
2023-11-23T11:49:03.410Z,29.97
2023-11-23T11:51:32.852Z,31.67
2023-11-23T11:54:02.697Z,30.50
2023-11-23T11:56:29.706Z,32.80
2023-11-23T11:58:56.990Z,28.30
2023-11-23T12:01:23.665Z,33.73
2023-11-23T12:03:50.900Z,27.33
2023-11-23T12:06:21.141Z,28.83
2023-11-23T12:08:48.128Z,24.60
2023-11-23T12:11:28.126Z,22.90
2023-11-23T12:13:57.057Z,23.87
2023-11-23T12:16:34.490Z,25.00
2023-11-23T12:19:01.321Z,25.07
2023-11-23T12:21:30.455Z,23.70
2023-11-23T12:23:58.797Z,25.10
2023-11-23T12:26:25.679Z,23.83
2023-11-23T12:28:52.360Z,24.97
2023-11-23T12:31:22.550Z,21.03
2023-11-23T12:33:49.334Z,27.73
2023-11-23T12:36:17.044Z,25.43
2023-11-23T12:38:44.460Z,23.27
2023-11-23T12:41:12.595Z,20.50
2023-11-23T12:43:40.347Z,26.53
2023-11-23T12:46:07.127Z,23.27
2023-11-23T12:48:35.096Z,22.93
2023-11-23T12:51:01.987Z,20.20
2023-11-23T12:53:30.676Z,29.33
2023-11-23T12:55:57.678Z,29.57
2023-11-23T12:58:24.463Z,32.00
2023-11-23T13:00:51.259Z,101.50
2023-11-23T13:03:18.075Z,19.33
2023-11-23T13:05:47.656Z,21.47
2023-11-23T13:08:14.672Z,19.43
2023-11-23T13:10:42.152Z,17.37
2023-11-23T13:13:09.754Z,21.53
2023-11-23T13:15:36.756Z,17.67
2023-11-23T13:18:05.311Z,18.60
2023-11-23T13:20:32.632Z,20.97
2023-11-23T13:23:04.138Z,18.13
2023-11-23T13:25:31.316Z,18.97
2023-11-23T13:27:59.194Z,14.47
2023-11-23T13:30:26.211Z,15.87
2023-11-23T13:32:53.071Z,16.73
2023-11-23T13:35:20.134Z,13.50
2023-11-23T13:37:46.832Z,41.93
2023-11-23T13:40:14.157Z,16.97
2023-11-23T13:42:43.873Z,13.70
2023-11-23T13:45:14.078Z,14.57
2023-11-23T13:47:43.685Z,12.47
2023-11-23T13:50:14.587Z,12.37
2023-11-23T13:52:44.179Z,19.90
2023-11-23T13:55:10.978Z,18.60
2023-11-23T13:57:38.129Z,13.40
2023-11-23T14:00:21.114Z,15.93
2023-11-23T14:02:50.930Z,16.70
2023-11-23T14:05:17.826Z,12.10
2023-11-23T14:07:44.511Z,13.73
2023-11-23T14:10:14.517Z,11.47
2023-11-23T14:12:44.539Z,11.77
2023-11-23T14:15:12.335Z,31.17
2023-11-23T14:17:40.488Z,12.87
2023-11-23T14:20:08.220Z,16.43
2023-11-23T14:22:36.720Z,13.00
2023-11-23T14:25:04.574Z,13.47
2023-11-23T14:27:31.325Z,12.33
2023-11-23T14:29:58.029Z,9.20
2023-11-23T14:32:24.679Z,11.13
2023-11-23T14:34:51.643Z,11.73
2023-11-23T14:37:18.496Z,13.77
2023-11-23T14:39:45.621Z,12.60
2023-11-23T14:42:12.941Z,10.07
2023-11-23T14:44:40.282Z,13.80
2023-11-23T14:47:08.064Z,10.13
2023-11-23T14:49:35.188Z,16.93
2023-11-23T14:52:01.927Z,16.23
2023-11-23T14:54:35.279Z,11.20
2023-11-23T14:57:06.556Z,10.90
2023-11-23T14:59:33.432Z,11.03
2023-11-23T15:02:00.607Z,11.43
2023-11-23T15:04:27.580Z,10.57
2023-11-23T15:06:54.297Z,17.37
2023-11-23T15:09:21.933Z,12.23
2023-11-23T15:11:49.491Z,14.33
2023-11-23T15:14:16.910Z,12.70
2023-11-23T15:16:43.581Z,9.80
2023-11-23T15:19:11.066Z,12.73
2023-11-23T15:21:37.877Z,13.00
2023-11-23T15:24:05.004Z,11.43
2023-11-23T15:26:31.800Z,14.83
2023-11-23T15:29:00.293Z,10.63
2023-11-23T15:31:27.103Z,10.23
2023-11-23T15:33:54.056Z,12.87
2023-11-23T15:36:20.749Z,10.70
2023-11-23T15:38:49.232Z,14.83
2023-11-23T15:41:18.498Z,12.70
2023-11-23T15:43:45.546Z,10.70
2023-11-23T15:46:13.211Z,11.77
2023-11-23T15:48:40.050Z,9.60
2023-11-23T15:51:06.831Z,9.17
2023-11-23T15:53:33.536Z,8.53
2023-11-23T15:56:00.226Z,10.23
2023-11-23T15:58:27.865Z,11.80
2023-11-23T16:00:54.505Z,10.53
2023-11-23T16:03:21.697Z,9.53
2023-11-23T16:05:49.397Z,15.60
2023-11-23T16:08:16.273Z,11.03
2023-11-23T16:10:43.200Z,16.57
2023-11-23T16:13:10.975Z,12.20
2023-11-23T16:15:37.756Z,14.37
2023-11-23T16:18:04.625Z,14.47
2023-11-23T16:20:31.373Z,11.10
2023-11-23T16:22:58.103Z,14.73
2023-11-23T16:25:27.111Z,20.13
2023-11-23T16:27:53.871Z,22.43
2023-11-23T16:30:20.602Z,14.23
2023-11-23T16:32:47.423Z,12.47
2023-11-23T16:35:14.166Z,30.43
2023-11-23T16:37:40.932Z,44.60
2023-11-23T16:40:11.186Z,60.30
2023-11-23T16:42:42.578Z,47.27
2023-11-23T16:45:10.450Z,14.73
2023-11-23T16:47:37.805Z,7.60
2023-11-23T16:50:04.837Z,9.50
2023-11-23T16:52:31.537Z,11.37
2023-11-23T16:54:59.083Z,16.20
2023-11-23T16:57:25.784Z,15.77
2023-11-23T16:59:52.555Z,13.53
2023-11-23T17:02:20.049Z,18.27
2023-11-23T17:04:50.408Z,13.50
2023-11-23T17:07:19.286Z,9.47
2023-11-23T17:09:49.365Z,12.00
2023-11-23T17:12:16.143Z,13.20
2023-11-23T17:14:43.008Z,9.83
2023-11-23T17:17:09.770Z,9.47
2023-11-23T17:19:37.379Z,12.73
2023-11-23T17:22:04.541Z,10.87
2023-11-23T17:24:31.324Z,8.10
2023-11-23T17:26:58.016Z,10.47
2023-11-23T17:29:24.725Z,10.97
2023-11-23T17:31:58.526Z,13.97
2023-11-23T17:34:27.146Z,12.87
2023-11-23T17:36:54.077Z,10.27
2023-11-23T17:39:23.339Z,10.63
2023-11-23T17:41:50.052Z,13.33
2023-11-23T17:44:17.001Z,11.40
2023-11-23T17:46:44.682Z,13.10
2023-11-23T17:49:14.749Z,10.07
2023-11-23T17:51:44.427Z,10.30
2023-11-23T17:54:12.499Z,12.23
2023-11-23T17:56:39.862Z,11.67
2023-11-23T17:59:25.620Z,14.40
2023-11-23T18:02:04.422Z,14.67
2023-11-23T18:04:31.961Z,9.80
2023-11-23T18:06:58.678Z,12.83
2023-11-23T18:09:25.357Z,17.80
2023-11-23T18:11:52.056Z,13.90
2023-11-23T18:14:18.707Z,15.37
2023-11-23T18:16:46.136Z,23.83
2023-11-23T18:19:13.182Z,15.33
2023-11-23T18:21:41.275Z,15.90
2023-11-23T18:24:08.024Z,15.67
2023-11-23T18:26:34.671Z,14.53
2023-11-23T18:29:01.442Z,18.50
2023-11-23T18:31:28.132Z,21.70
2023-11-23T18:33:54.856Z,21.47
2023-11-23T18:36:22.824Z,12.93
2023-11-23T18:38:49.763Z,19.13
2023-11-23T18:41:17.202Z,18.47
2023-11-23T18:43:44.008Z,17.83
2023-11-23T18:46:12.343Z,16.23
2023-11-23T18:48:40.205Z,22.23
2023-11-23T18:51:07.838Z,20.10
2023-11-23T18:53:34.526Z,22.20
2023-11-23T18:56:01.192Z,23.63
2023-11-23T18:58:27.833Z,22.40
2023-11-23T19:00:55.148Z,23.67
2023-11-23T19:03:22.615Z,20.40
2023-11-23T19:05:51.095Z,16.87
2023-11-23T19:08:17.737Z,25.87
2023-11-23T19:10:46.985Z,24.20
2023-11-23T19:13:14.430Z,28.77
2023-11-23T19:15:41.609Z,30.80
2023-11-23T19:18:11.003Z,28.80
2023-11-23T19:20:39.671Z,33.30
2023-11-23T19:23:08.141Z,29.20
2023-11-23T19:25:35.650Z,34.60
2023-11-23T19:28:02.705Z,30.20
2023-11-23T19:30:29.714Z,35.63
2023-11-23T19:32:57.182Z,31.43
2023-11-23T19:35:26.387Z,32.73
2023-11-23T19:37:53.659Z,35.33
2023-11-23T19:40:24.287Z,39.50
2023-11-23T19:42:51.765Z,36.20
2023-11-23T19:45:19.537Z,32.90
2023-11-23T19:47:46.618Z,34.30
2023-11-23T19:50:13.879Z,33.10
2023-11-23T19:52:44.548Z,37.00
2023-11-23T19:55:12.691Z,35.93
2023-11-23T19:57:40.137Z,48.07
2023-11-23T20:00:07.914Z,45.70
2023-11-23T20:02:35.616Z,36.00
2023-11-23T20:05:04.224Z,37.87
2023-11-23T20:07:31.113Z,39.77
2023-11-23T20:10:00.865Z,44.63
2023-11-23T20:12:28.598Z,44.50
2023-11-23T20:14:55.380Z,37.13
2023-11-23T20:17:22.673Z,33.17
2023-11-23T20:19:49.881Z,34.17
2023-11-23T20:22:17.251Z,32.43
2023-11-23T20:24:44.336Z,35.70
2023-11-23T20:27:12.391Z,40.53
2023-11-23T20:29:39.129Z,36.37
2023-11-23T20:32:07.063Z,32.10
2023-11-23T20:34:33.948Z,34.23
2023-11-23T20:37:00.843Z,32.27
2023-11-23T20:39:31.654Z,35.30
2023-11-23T20:41:59.006Z,29.60
2023-11-23T20:44:25.786Z,37.40
2023-11-23T20:46:52.787Z,42.47
2023-11-23T20:49:19.929Z,42.00
2023-11-23T20:51:46.802Z,42.53
2023-11-23T20:54:13.552Z,38.47
2023-11-23T20:56:40.564Z,42.10
2023-11-23T20:59:07.622Z,38.53
2023-11-23T21:01:34.675Z,34.50
2023-11-23T21:04:01.959Z,43.43
2023-11-23T21:06:30.283Z,40.17
2023-11-23T21:08:57.339Z,40.70
2023-11-23T21:11:24.336Z,43.83
2023-11-23T21:13:51.051Z,46.07
2023-11-23T21:16:19.177Z,44.00
2023-11-23T21:18:45.977Z,51.50
2023-11-23T21:21:12.751Z,46.43
2023-11-23T21:23:40.044Z,43.00
2023-11-23T21:26:07.296Z,39.23
2023-11-23T21:28:35.251Z,42.53
2023-11-23T21:31:02.712Z,41.37
2023-11-23T21:33:29.712Z,45.33
2023-11-23T21:35:56.421Z,48.53
2023-11-23T21:38:23.156Z,46.60
2023-11-23T21:40:49.865Z,45.77
2023-11-23T21:43:16.579Z,45.63
2023-11-23T21:45:43.278Z,47.63
2023-11-23T21:48:10.612Z,39.17
2023-11-23T21:50:37.654Z,40.43
2023-11-23T21:53:04.676Z,46.30
2023-11-23T21:55:31.428Z,46.90
2023-11-23T21:58:00.996Z,41.53
2023-11-23T22:00:27.779Z,47.10
2023-11-23T22:02:54.562Z,42.37
2023-11-23T22:05:21.375Z,39.13
2023-11-23T22:07:48.074Z,40.40
2023-11-23T22:10:14.822Z,39.80
2023-11-23T22:12:43.904Z,42.23
2023-11-23T22:15:11.866Z,39.53
2023-11-23T22:17:38.767Z,42.67
2023-11-23T22:20:06.417Z,45.70
2023-11-23T22:22:33.440Z,40.80
2023-11-23T22:25:00.354Z,36.77
2023-11-23T22:27:29.057Z,37.03
2023-11-23T22:29:56.538Z,45.00
2023-11-23T22:32:26.405Z,41.80
2023-11-23T22:34:54.373Z,34.60
2023-11-23T22:37:21.372Z,37.60
2023-11-23T22:39:48.216Z,38.40
2023-11-23T22:42:15.990Z,34.80
2023-11-23T22:44:42.946Z,34.37
2023-11-23T22:47:09.826Z,44.40
2023-11-23T22:49:36.534Z,38.57
2023-11-23T22:52:05.164Z,39.93
2023-11-23T22:54:33.283Z,37.07
2023-11-23T22:57:00.026Z,38.50
2023-11-23T22:59:26.709Z,41.33
2023-11-23T23:01:53.536Z,39.27
2023-11-23T23:04:21.737Z,30.80
2023-11-23T23:06:48.631Z,32.40
2023-11-23T23:09:16.469Z,34.53
2023-11-23T23:11:43.268Z,30.70
2023-11-23T23:14:10.652Z,35.30
2023-11-23T23:16:37.362Z,29.13
2023-11-23T23:19:04.454Z,30.57
2023-11-23T23:21:32.572Z,43.37
2023-11-23T23:23:59.476Z,32.87
2023-11-23T23:26:26.215Z,24.73
2023-11-23T23:28:53.018Z,19.20
2023-11-23T23:31:19.733Z,11.07
2023-11-23T23:33:46.541Z,14.40
2023-11-23T23:36:13.267Z,10.53
2023-11-23T23:38:40.307Z,11.03
2023-11-23T23:41:07.880Z,10.33
2023-11-23T23:43:40.358Z,18.73
2023-11-23T23:46:07.037Z,13.23
2023-11-23T23:48:33.821Z,7.20
2023-11-23T23:51:01.120Z,8.40
2023-11-23T23:53:28.001Z,19.53
2023-11-23T23:55:57.975Z,12.17
2023-11-23T23:58:25.804Z,19.20
